Flight Track Log - Related Links

Times and Time Zones

All times are in EDT time to prevent confusion due to time zone crossing. See the N779NC flight status page for this flight to view local times or setup timezone preferences in your user account.

Time Position Orientation Groundspeed Altitude Reporting Facility
EDT Latitude Longitude Course Direction KTS MPH feet Rate Location/Type
Tue 03:10:27 PM 42.0167 -87.9167 180° South 174 200 1,900  Level Chicago TRACON
Tue 03:11:27 PM 42.0167 -87.8833 90° East 231 266 3,800 1,900 Climbing Chicago TRACON
Tue 03:12:27 PM 41.9667 -87.8333 143° Southeast 257 296 5,700 1,813 Climbing Chicago TRACON
Tue 03:13:00 PM 41.6175 -87.7360 171° South  Level Estimated
Tue 03:13:46 PM 41.8711 -87.8178 173° South 265 305 8,000  Level Chicago Center
Tue 03:14:00 PM 41.5264 -87.6936 168° South  Level Estimated
Tue 03:14:48 PM 41.7947 -87.8111 176° South 275 316 9,800  Level Chicago Center
Tue 03:15:00 PM 41.4353 -87.6514 180° South  Level Estimated
Tue 03:15:50 PM 41.7122 -87.8031 176° South 291 335 11,400  Level Chicago Center
Tue 03:16:52 PM 41.6169 -87.7950 176° South 335 386 12,100 968 Climbing Chicago Center
Tue 03:17:54 PM 41.4881 -87.7864 177° South 375 432 13,400 1,935 Climbing Chicago Center
Tue 03:18:56 PM 41.3811 -87.7881 181° South 381 438 16,100 2,032 Climbing Chicago Center
Tue 03:19:58 PM 41.2781 -87.7961 183° South 369 425 17,600 1,500 Climbing Chicago Center
Tue 03:21:00 PM 41.1731 -87.7956 180° South 374 430 19,200 1,355 Climbing Chicago Center
Tue 03:22:02 PM 41.0656 -87.7786 173° South 386 444 20,400 1,296 Climbing Chicago Center
Tue 03:23:05 PM 40.9581 -87.7486 168° South 395 455 21,900 1,296 Climbing Chicago Center
Tue 03:24:07 PM 40.8481 -87.7153 167° South 400 460 23,100 1,210 Climbing Chicago Center
Tue 03:25:09 PM 40.7144 -87.6739 167° South 407 468 24,400 1,161 Climbing Chicago Center
Tue 03:26:11 PM 40.6000 -87.6364 166° South 416 479 25,500 1,258 Climbing Chicago Center
Tue 03:27:13 PM 40.4864 -87.5964 165° South 421 484 27,000 1,161 Climbing Chicago Center
Tue 03:28:15 PM 40.3756 -87.5556 164° South 419 482 27,900 1,210 Climbing Chicago Center
Tue 03:29:17 PM 40.2672 -87.5114 163° South 414 476 29,500 1,355 Climbing Chicago Center
Tue 03:30:19 PM 40.1453 -87.4436 157° South 403 464 30,700 923 Climbing Chicago Center
Tue 03:31:01 PM 40.0814 -87.4103 158° South 401 461 31,100 173 Climbing Indianapolis Center
Tue 03:32:03 PM 39.9772 -87.3569 159° South 403 464 31,000 -49 Descending Indianapolis Center
Tue 03:33:04 PM 39.8683 -87.3081 161° South 412 474 31,000  Level Indianapolis Center
Tue 03:34:06 PM 39.7392 -87.2467 160° South 414 476 31,000  Level Indianapolis Center
Tue 03:35:08 PM 39.6331 -87.1961 160° South 410 472 31,000  Level Indianapolis Center
Tue 03:36:10 PM 39.5272 -87.1444 159° South 409 471 31,000  Level Indianapolis Center
Tue 03:37:12 PM 39.4206 -87.0922 159° South 412 474 31,000  Level Indianapolis Center
Tue 03:38:14 PM 39.3142 -87.0411 160° South 412 474 31,000  Level Indianapolis Center
Tue 03:39:16 PM 39.1875 -86.9789 159° South 410 472 31,000  Level Indianapolis Center
Tue 03:40:18 PM 39.0911 -86.9336 160° South 412 474 31,000  Level Indianapolis Center
Tue 03:41:20 PM 38.9831 -86.8892 162° South 406 467 31,000  Level Indianapolis Center
Tue 03:42:21 PM 38.8742 -86.8450 162° South 407 468 31,000  Level Indianapolis Center
Tue 03:43:23 PM 38.7408 -86.8069 167° South 404 465 31,000  Level Indianapolis Center
Tue 03:44:25 PM 38.6292 -86.7794 169° South 404 465 31,000  Level Indianapolis Center
Tue 03:45:27 PM 38.5161 -86.7589 172° South 406 467 31,000  Level Indianapolis Center
Tue 03:46:29 PM 38.4019 -86.7411 173° South 406 467 31,000  Level Indianapolis Center
Tue 03:47:31 PM 38.2853 -86.7342 177° South 410 472 31,000  Level Indianapolis Center
Tue 03:48:33 PM 38.1692 -86.7269 177° South 411 473 31,000  Level Indianapolis Center
Tue 03:49:34 PM 38.0536 -86.7189 177° South 410 472 31,000 195 Level Indianapolis Center
Tue 03:50:36 PM 37.9414 -86.7083 176° South 402 463 31,400 484 Climbing Indianapolis Center
Tue 03:51:38 PM 37.8319 -86.6894 172° South 394 453 32,000 677 Climbing Indianapolis Center
Tue 03:52:40 PM 37.7244 -86.6606 168° South 392 451 32,800 581 Climbing Indianapolis Center
Tue 03:53:42 PM 37.5950 -86.6253 168° South 396 456 33,200 435 Climbing Indianapolis Center
Tue 03:54:44 PM 37.5008 -86.5997 168° South 394 453 33,700 629 Climbing Indianapolis Center
Tue 03:55:46 PM 37.3792 -86.5586 165° South 385 443 34,500 581 Climbing Indianapolis Center
Tue 03:56:48 PM 37.2775 -86.5211 164° South 379 436 34,900 242 Climbing Indianapolis Center
Tue 03:57:50 PM 37.1733 -86.4878 166° South 381 438 35,000 55 Climbing Indianapolis Center
Tue 03:58:38 PM 37.0878 -86.4719 172° South 381 438 35,000  Level Memphis Center
Tue 03:59:38 PM 36.9850 -86.4508 171° South 376 433 35,000  Level Memphis Center
Tue 04:00:38 PM 36.8825 -86.4431 177° South 371 427 35,000  Level Memphis Center
Tue 04:01:38 PM 36.7908 -86.4372 177° South 371 427 35,000  Level Memphis Center
Tue 04:02:38 PM 36.6925 -86.4314 177° South 365 420 35,000  Level Memphis Center
Tue 04:03:38 PM 36.5922 -86.4236 176° South 365 420 35,000  Level Memphis Center
Tue 04:04:38 PM 36.4897 -86.4106 174° South 365 420 35,000  Level Memphis Center
Tue 04:05:38 PM 36.3789 -86.3978 175° South 370 426 35,000  Level Memphis Center
Tue 04:06:38 PM 36.2783 -86.3872 175° South 370 426 35,000  Level Memphis Center
Tue 04:07:38 PM 36.1781 -86.3742 174° South 370 426 35,000 -200 Level Memphis Center
Tue 04:08:38 PM 36.0756 -86.3636 175° South 370 426 34,600 -500 Descending Memphis Center
Tue 04:09:38 PM 35.9728 -86.3481 173° South 375 432 34,000 -466 Descending Memphis Center
Tue 04:12:04 PM 35.7075 -86.3200 175° South 409 471 33,000 -437 Descending Atlanta Center
Tue 04:13:04 PM 35.6044 -86.2636 156° South 403 464 32,500 -850 Descending Atlanta Center
Tue 04:14:04 PM 35.5119 -86.1819 144° Southeast 403 464 31,300 -1,200 Descending Atlanta Center
Tue 04:15:04 PM 35.4172 -86.1031 146° Southeast 403 464 30,100 -950 Descending Atlanta Center
Tue 04:16:04 PM 35.3225 -86.0217 145° Southeast 415 478 29,400 -650 Descending Atlanta Center
Tue 04:17:04 PM 35.2236 -85.9406 146° Southeast 421 484 28,800 -550 Descending Atlanta Center
Tue 04:18:04 PM 35.1247 -85.8619 147° Southeast 426 490 28,300 -550 Descending Atlanta Center
Tue 04:19:04 PM 35.0194 -85.7786 147° Southeast 431 496 27,700 -550 Descending Atlanta Center
Tue 04:20:04 PM 34.9164 -85.7006 148° Southeast 436 502 27,200 -550 Descending Atlanta Center
Tue 04:21:04 PM 34.8150 -85.6200 147° Southeast 441 507 26,600 -1,250 Descending Atlanta Center
Tue 04:22:04 PM 34.7139 -85.5422 148° Southeast 441 507 24,700 -2,000 Descending Atlanta Center
Tue 04:23:04 PM 34.6125 -85.4672 149° Southeast 441 507 22,600 -1,900 Descending Atlanta Center
Tue 04:24:04 PM 34.5131 -85.3925 148° Southeast 426 490 20,900 -1,900 Descending Atlanta Center
Tue 04:25:04 PM 34.4139 -85.3181 148° Southeast 421 484 18,800 -2,050 Descending Atlanta Center
Tue 04:26:04 PM 34.3331 -85.2564 148° Southeast 402 463 16,800 -2,300 Descending Atlanta Center
Tue 04:27:04 PM 34.2439 -85.1847 146° Southeast 391 450 14,200 -1,850 Descending Atlanta Center
Tue 04:28:04 PM 34.1675 -85.1083 140° Southeast 369 425 13,100 -550 Descending Atlanta Center
Tue 04:29:04 PM 34.1097 -85.0297 132° Southeast 323 372 13,100 -800 Level Atlanta Center
Tue 04:30:04 PM 34.0306 -84.9814 153° Southeast 297 342 11,500 -1,600 Descending Atlanta Center
Tue 04:31:04 PM 33.9875 -84.8981 122° Southeast 281 323 9,900 -1,200 Descending Atlanta Center
Tue 04:32:04 PM 33.9442 -84.8175 123° Southeast 281 323 9,100 -550 Descending Atlanta Center
Tue 04:33:04 PM 33.8756 -84.7794 155° Southeast 268 308 8,800 -1,250 Descending Atlanta Center
Tue 04:34:04 PM 33.8111 -84.7514 160° South 256 295 6,600 -1,850 Descending Atlanta Center
Tue 04:35:04 PM 33.7486 -84.7183 156° South 251 289 5,100 -1,248 Descending Atlanta Center
Tue 04:36:09 PM 33.6833 -84.6667 147° Southeast 242 278 4,000 -1,015 Descending Atlanta TRACON

Login

Don't have an account? Register now (free) for customized features, flight alerts, and more!